sensor_id;sensor_type;location;lat;lon;timestamp;P1;durP1;ratioP1;P2;durP2;ratioP2
18881;SDS011;9573;50.948;11.600;2024-03-06T00:00:59;64.27;;;26.33;;
18881;SDS011;9573;50.948;11.600;2024-03-06T00:03:26;62.67;;;26.37;;
18881;SDS011;9573;50.948;11.600;2024-03-06T00:05:53;61.20;;;25.50;;
18881;SDS011;9573;50.948;11.600;2024-03-06T00:08:22;62.97;;;26.17;;
18881;SDS011;9573;50.948;11.600;2024-03-06T00:10:49;64.53;;;26.87;;
18881;SDS011;9573;50.948;11.600;2024-03-06T00:13:16;61.60;;;25.93;;
18881;SDS011;9573;50.948;11.600;2024-03-06T00:15:43;61.27;;;26.77;;
18881;SDS011;9573;50.948;11.600;2024-03-06T00:18:10;63.93;;;26.03;;
18881;SDS011;9573;50.948;11.600;2024-03-06T00:20:37;61.43;;;26.63;;
18881;SDS011;9573;50.948;11.600;2024-03-06T00:23:05;65.67;;;27.07;;
18881;SDS011;9573;50.948;11.600;2024-03-06T00:25:34;65.53;;;28.07;;
18881;SDS011;9573;50.948;11.600;2024-03-06T00:28:01;58.10;;;24.43;;
18881;SDS011;9573;50.948;11.600;2024-03-06T00:30:29;64.30;;;26.90;;
18881;SDS011;9573;50.948;11.600;2024-03-06T00:32:56;65.97;;;25.97;;
18881;SDS011;9573;50.948;11.600;2024-03-06T00:35:23;66.37;;;25.23;;
18881;SDS011;9573;50.948;11.600;2024-03-06T00:37:51;59.00;;;25.07;;
18881;SDS011;9573;50.948;11.600;2024-03-06T00:40:18;58.50;;;23.87;;
18881;SDS011;9573;50.948;11.600;2024-03-06T00:42:47;66.27;;;25.17;;
18881;SDS011;9573;50.948;11.600;2024-03-06T00:45:14;62.77;;;25.17;;
18881;SDS011;9573;50.948;11.600;2024-03-06T00:47:41;57.03;;;25.37;;
18881;SDS011;9573;50.948;11.600;2024-03-06T00:50:08;55.03;;;24.50;;
18881;SDS011;9573;50.948;11.600;2024-03-06T00:52:36;57.43;;;24.17;;
18881;SDS011;9573;50.948;11.600;2024-03-06T00:55:03;55.23;;;23.30;;
18881;SDS011;9573;50.948;11.600;2024-03-06T00:57:31;55.13;;;23.57;;
18881;SDS011;9573;50.948;11.600;2024-03-06T00:59:59;58.60;;;23.83;;
18881;SDS011;9573;50.948;11.600;2024-03-06T01:02:27;54.03;;;23.07;;
18881;SDS011;9573;50.948;11.600;2024-03-06T01:04:54;53.33;;;22.30;;
18881;SDS011;9573;50.948;11.600;2024-03-06T01:07:21;63.53;;;23.77;;
18881;SDS011;9573;50.948;11.600;2024-03-06T01:09:48;55.07;;;22.83;;
18881;SDS011;9573;50.948;11.600;2024-03-06T01:12:16;51.03;;;22.43;;
18881;SDS011;9573;50.948;11.600;2024-03-06T01:14:43;52.13;;;22.60;;
18881;SDS011;9573;50.948;11.600;2024-03-06T01:17:11;53.33;;;21.77;;
18881;SDS011;9573;50.948;11.600;2024-03-06T01:19:39;50.10;;;22.00;;
18881;SDS011;9573;50.948;11.600;2024-03-06T01:22:08;52.30;;;22.53;;
18881;SDS011;9573;50.948;11.600;2024-03-06T01:24:35;50.73;;;21.67;;
18881;SDS011;9573;50.948;11.600;2024-03-06T01:27:02;53.00;;;22.03;;
18881;SDS011;9573;50.948;11.600;2024-03-06T01:29:29;51.77;;;21.90;;
18881;SDS011;9573;50.948;11.600;2024-03-06T01:31:57;55.03;;;22.17;;
18881;SDS011;9573;50.948;11.600;2024-03-06T01:34:26;55.00;;;22.57;;
18881;SDS011;9573;50.948;11.600;2024-03-06T01:36:53;53.70;;;23.37;;
18881;SDS011;9573;50.948;11.600;2024-03-06T01:39:21;53.83;;;22.47;;
18881;SDS011;9573;50.948;11.600;2024-03-06T01:41:48;54.07;;;24.63;;
18881;SDS011;9573;50.948;11.600;2024-03-06T01:44:17;58.67;;;24.90;;
18881;SDS011;9573;50.948;11.600;2024-03-06T01:46:45;58.83;;;24.93;;
18881;SDS011;9573;50.948;11.600;2024-03-06T01:49:13;61.83;;;25.63;;
18881;SDS011;9573;50.948;11.600;2024-03-06T01:51:45;63.67;;;25.63;;
18881;SDS011;9573;50.948;11.600;2024-03-06T01:54:17;61.83;;;26.00;;
18881;SDS011;9573;50.948;11.600;2024-03-06T01:56:45;59.10;;;24.80;;
18881;SDS011;9573;50.948;11.600;2024-03-06T01:59:14;55.13;;;23.67;;
18881;SDS011;9573;50.948;11.600;2024-03-06T02:01:43;58.10;;;24.00;;
18881;SDS011;9573;50.948;11.600;2024-03-06T02:04:11;57.33;;;24.10;;
18881;SDS011;9573;50.948;11.600;2024-03-06T02:06:39;60.83;;;23.83;;
18881;SDS011;9573;50.948;11.600;2024-03-06T02:09:08;54.17;;;23.27;;
18881;SDS011;9573;50.948;11.600;2024-03-06T02:11:36;59.13;;;23.97;;
18881;SDS011;9573;50.948;11.600;2024-03-06T02:14:03;55.97;;;23.27;;
18881;SDS011;9573;50.948;11.600;2024-03-06T02:16:31;56.27;;;24.13;;
18881;SDS011;9573;50.948;11.600;2024-03-06T02:18:58;53.57;;;22.80;;
18881;SDS011;9573;50.948;11.600;2024-03-06T02:21:27;57.87;;;22.37;;
18881;SDS011;9573;50.948;11.600;2024-03-06T02:23:54;53.23;;;22.07;;
18881;SDS011;9573;50.948;11.600;2024-03-06T02:26:21;50.80;;;20.83;;
18881;SDS011;9573;50.948;11.600;2024-03-06T02:28:48;50.50;;;19.87;;
18881;SDS011;9573;50.948;11.600;2024-03-06T02:31:16;48.43;;;19.40;;
18881;SDS011;9573;50.948;11.600;2024-03-06T02:33:43;47.77;;;20.23;;
18881;SDS011;9573;50.948;11.600;2024-03-06T02:36:12;44.17;;;19.07;;
18881;SDS011;9573;50.948;11.600;2024-03-06T02:38:40;44.90;;;19.17;;
18881;SDS011;9573;50.948;11.600;2024-03-06T02:41:08;45.93;;;19.63;;
18881;SDS011;9573;50.948;11.600;2024-03-06T02:43:35;44.93;;;18.90;;
18881;SDS011;9573;50.948;11.600;2024-03-06T02:46:02;44.93;;;18.27;;
18881;SDS011;9573;50.948;11.600;2024-03-06T02:48:30;45.37;;;17.33;;
18881;SDS011;9573;50.948;11.600;2024-03-06T02:50:58;44.17;;;18.10;;
18881;SDS011;9573;50.948;11.600;2024-03-06T02:53:26;45.20;;;18.27;;
18881;SDS011;9573;50.948;11.600;2024-03-06T02:55:54;45.20;;;16.50;;
18881;SDS011;9573;50.948;11.600;2024-03-06T02:58:21;41.47;;;17.30;;
18881;SDS011;9573;50.948;11.600;2024-03-06T03:00:48;42.93;;;17.03;;
18881;SDS011;9573;50.948;11.600;2024-03-06T03:03:15;40.27;;;17.07;;
18881;SDS011;9573;50.948;11.600;2024-03-06T03:05:42;44.33;;;17.33;;
18881;SDS011;9573;50.948;11.600;2024-03-06T03:08:09;44.80;;;17.60;;
18881;SDS011;9573;50.948;11.600;2024-03-06T03:10:36;45.37;;;16.47;;
18881;SDS011;9573;50.948;11.600;2024-03-06T03:13:05;45.23;;;18.53;;
18881;SDS011;9573;50.948;11.600;2024-03-06T03:15:31;43.33;;;18.07;;
18881;SDS011;9573;50.948;11.600;2024-03-06T03:17:59;40.87;;;18.03;;
18881;SDS011;9573;50.948;11.600;2024-03-06T03:20:26;47.13;;;18.77;;
18881;SDS011;9573;50.948;11.600;2024-03-06T03:22:53;47.90;;;18.40;;
18881;SDS011;9573;50.948;11.600;2024-03-06T03:25:20;40.90;;;17.60;;
18881;SDS011;9573;50.948;11.600;2024-03-06T03:27:47;40.70;;;16.83;;
18881;SDS011;9573;50.948;11.600;2024-03-06T03:30:18;40.23;;;17.60;;
18881;SDS011;9573;50.948;11.600;2024-03-06T03:32:46;44.93;;;17.87;;
18881;SDS011;9573;50.948;11.600;2024-03-06T03:35:14;41.87;;;18.03;;
18881;SDS011;9573;50.948;11.600;2024-03-06T03:37:42;44.20;;;18.37;;
18881;SDS011;9573;50.948;11.600;2024-03-06T03:40:10;49.60;;;17.63;;
18881;SDS011;9573;50.948;11.600;2024-03-06T03:42:37;43.23;;;18.30;;
18881;SDS011;9573;50.948;11.600;2024-03-06T03:45:04;43.77;;;19.40;;
18881;SDS011;9573;50.948;11.600;2024-03-06T03:47:33;47.33;;;18.40;;
18881;SDS011;9573;50.948;11.600;2024-03-06T03:50:00;53.20;;;19.20;;
18881;SDS011;9573;50.948;11.600;2024-03-06T03:52:28;47.27;;;18.67;;
18881;SDS011;9573;50.948;11.600;2024-03-06T03:54:56;44.07;;;18.23;;
18881;SDS011;9573;50.948;11.600;2024-03-06T03:57:23;53.53;;;19.17;;
18881;SDS011;9573;50.948;11.600;2024-03-06T03:59:50;44.43;;;18.77;;
18881;SDS011;9573;50.948;11.600;2024-03-06T04:02:17;48.73;;;19.07;;
18881;SDS011;9573;50.948;11.600;2024-03-06T04:04:45;47.50;;;19.73;;
18881;SDS011;9573;50.948;11.600;2024-03-06T04:07:12;53.33;;;19.50;;
18881;SDS011;9573;50.948;11.600;2024-03-06T04:09:41;50.00;;;20.33;;
18881;SDS011;9573;50.948;11.600;2024-03-06T04:12:08;45.10;;;18.80;;
18881;SDS011;9573;50.948;11.600;2024-03-06T04:14:35;44.00;;;18.70;;
18881;SDS011;9573;50.948;11.600;2024-03-06T04:17:02;47.10;;;19.23;;
18881;SDS011;9573;50.948;11.600;2024-03-06T04:19:30;48.63;;;20.10;;
18881;SDS011;9573;50.948;11.600;2024-03-06T04:21:59;44.87;;;18.83;;
18881;SDS011;9573;50.948;11.600;2024-03-06T04:24:26;50.37;;;20.73;;
18881;SDS011;9573;50.948;11.600;2024-03-06T04:26:54;46.67;;;19.53;;
18881;SDS011;9573;50.948;11.600;2024-03-06T04:29:21;45.67;;;19.43;;
18881;SDS011;9573;50.948;11.600;2024-03-06T04:31:48;46.10;;;19.93;;
18881;SDS011;9573;50.948;11.600;2024-03-06T04:34:15;47.00;;;20.13;;
18881;SDS011;9573;50.948;11.600;2024-03-06T04:36:42;48.23;;;20.17;;
18881;SDS011;9573;50.948;11.600;2024-03-06T04:39:10;51.63;;;19.90;;
18881;SDS011;9573;50.948;11.600;2024-03-06T04:41:37;55.47;;;20.47;;
18881;SDS011;9573;50.948;11.600;2024-03-06T04:44:04;52.40;;;20.13;;
18881;SDS011;9573;50.948;11.600;2024-03-06T04:46:31;52.00;;;20.53;;
18881;SDS011;9573;50.948;11.600;2024-03-06T04:48:58;50.40;;;20.33;;
18881;SDS011;9573;50.948;11.600;2024-03-06T04:51:25;50.23;;;19.57;;
18881;SDS011;9573;50.948;11.600;2024-03-06T04:53:52;50.73;;;21.10;;
18881;SDS011;9573;50.948;11.600;2024-03-06T04:56:20;51.37;;;20.50;;
18881;SDS011;9573;50.948;11.600;2024-03-06T04:58:47;51.50;;;19.93;;
18881;SDS011;9573;50.948;11.600;2024-03-06T05:01:16;49.33;;;19.50;;
18881;SDS011;9573;50.948;11.600;2024-03-06T05:03:43;49.27;;;19.53;;
18881;SDS011;9573;50.948;11.600;2024-03-06T05:06:10;44.40;;;18.03;;
18881;SDS011;9573;50.948;11.600;2024-03-06T05:08:37;48.90;;;20.13;;
18881;SDS011;9573;50.948;11.600;2024-03-06T05:11:04;45.83;;;19.30;;
18881;SDS011;9573;50.948;11.600;2024-03-06T05:13:34;49.90;;;19.67;;
18881;SDS011;9573;50.948;11.600;2024-03-06T05:16:01;44.33;;;20.00;;
18881;SDS011;9573;50.948;11.600;2024-03-06T05:18:28;49.23;;;19.03;;
18881;SDS011;9573;50.948;11.600;2024-03-06T05:20:55;50.50;;;20.33;;
18881;SDS011;9573;50.948;11.600;2024-03-06T05:23:22;49.90;;;20.37;;
18881;SDS011;9573;50.948;11.600;2024-03-06T05:25:49;49.57;;;20.40;;
18881;SDS011;9573;50.948;11.600;2024-03-06T05:28:16;46.90;;;19.43;;
18881;SDS011;9573;50.948;11.600;2024-03-06T05:30:44;46.67;;;19.00;;
18881;SDS011;9573;50.948;11.600;2024-03-06T05:33:12;54.28;;;23.85;;
18881;SDS011;9573;50.948;11.600;2024-03-06T05:35:39;51.10;;;20.63;;
18881;SDS011;9573;50.948;11.600;2024-03-06T05:38:07;42.90;;;19.13;;
18881;SDS011;9573;50.948;11.600;2024-03-06T05:40:34;46.60;;;19.63;;
18881;SDS011;9573;50.948;11.600;2024-03-06T05:43:04;47.50;;;20.80;;
18881;SDS011;9573;50.948;11.600;2024-03-06T05:45:31;48.57;;;18.73;;
18881;SDS011;9573;50.948;11.600;2024-03-06T05:47:59;44.53;;;19.37;;
18881;SDS011;9573;50.948;11.600;2024-03-06T05:50:29;45.70;;;19.57;;
18881;SDS011;9573;50.948;11.600;2024-03-06T05:52:57;48.70;;;18.70;;
18881;SDS011;9573;50.948;11.600;2024-03-06T05:55:25;47.57;;;19.27;;
18881;SDS011;9573;50.948;11.600;2024-03-06T05:57:52;45.17;;;18.43;;
18881;SDS011;9573;50.948;11.600;2024-03-06T06:00:19;47.03;;;18.50;;
18881;SDS011;9573;50.948;11.600;2024-03-06T06:02:47;46.73;;;19.53;;
18881;SDS011;9573;50.948;11.600;2024-03-06T06:05:15;50.80;;;19.83;;
18881;SDS011;9573;50.948;11.600;2024-03-06T06:07:44;48.07;;;18.30;;
18881;SDS011;9573;50.948;11.600;2024-03-06T06:10:12;48.77;;;20.23;;
18881;SDS011;9573;50.948;11.600;2024-03-06T06:12:39;48.63;;;19.27;;
18881;SDS011;9573;50.948;11.600;2024-03-06T06:15:06;50.80;;;19.03;;
18881;SDS011;9573;50.948;11.600;2024-03-06T06:17:34;49.80;;;19.63;;
18881;SDS011;9573;50.948;11.600;2024-03-06T06:20:02;48.97;;;19.70;;
18881;SDS011;9573;50.948;11.600;2024-03-06T06:22:36;54.67;;;18.97;;
18881;SDS011;9573;50.948;11.600;2024-03-06T06:25:04;53.10;;;19.73;;
18881;SDS011;9573;50.948;11.600;2024-03-06T06:27:34;50.43;;;18.93;;
18881;SDS011;9573;50.948;11.600;2024-03-06T06:30:02;50.27;;;20.07;;
18881;SDS011;9573;50.948;11.600;2024-03-06T06:32:30;47.83;;;20.33;;
18881;SDS011;9573;50.948;11.600;2024-03-06T06:34:57;55.00;;;20.03;;
18881;SDS011;9573;50.948;11.600;2024-03-06T06:37:24;49.03;;;19.87;;
18881;SDS011;9573;50.948;11.600;2024-03-06T06:39:53;47.63;;;19.13;;
18881;SDS011;9573;50.948;11.600;2024-03-06T06:42:20;52.67;;;20.00;;
18881;SDS011;9573;50.948;11.600;2024-03-06T06:44:47;49.73;;;19.13;;
18881;SDS011;9573;50.948;11.600;2024-03-06T06:47:14;48.90;;;19.43;;
18881;SDS011;9573;50.948;11.600;2024-03-06T06:49:41;44.03;;;18.47;;
18881;SDS011;9573;50.948;11.600;2024-03-06T06:52:09;44.67;;;18.30;;
18881;SDS011;9573;50.948;11.600;2024-03-06T06:54:36;49.07;;;18.63;;
18881;SDS011;9573;50.948;11.600;2024-03-06T06:57:05;47.87;;;18.97;;
18881;SDS011;9573;50.948;11.600;2024-03-06T06:59:33;44.03;;;18.80;;
18881;SDS011;9573;50.948;11.600;2024-03-06T07:02:01;49.30;;;18.37;;
18881;SDS011;9573;50.948;11.600;2024-03-06T07:04:29;49.83;;;19.57;;
18881;SDS011;9573;50.948;11.600;2024-03-06T07:06:56;49.03;;;18.40;;
18881;SDS011;9573;50.948;11.600;2024-03-06T07:09:23;39.83;;;17.83;;
18881;SDS011;9573;50.948;11.600;2024-03-06T07:11:54;44.53;;;18.77;;
18881;SDS011;9573;50.948;11.600;2024-03-06T07:14:23;42.50;;;17.97;;
18881;SDS011;9573;50.948;11.600;2024-03-06T07:16:50;41.40;;;18.37;;
18881;SDS011;9573;50.948;11.600;2024-03-06T07:19:17;42.70;;;17.53;;
18881;SDS011;9573;50.948;11.600;2024-03-06T07:21:45;40.37;;;18.30;;
18881;SDS011;9573;50.948;11.600;2024-03-06T07:24:12;42.07;;;17.57;;
18881;SDS011;9573;50.948;11.600;2024-03-06T07:26:39;38.27;;;16.93;;
18881;SDS011;9573;50.948;11.600;2024-03-06T07:29:06;40.53;;;18.47;;
18881;SDS011;9573;50.948;11.600;2024-03-06T07:31:41;41.00;;;17.83;;
18881;SDS011;9573;50.948;11.600;2024-03-06T07:34:08;44.93;;;19.03;;
18881;SDS011;9573;50.948;11.600;2024-03-06T07:36:35;40.37;;;17.67;;
18881;SDS011;9573;50.948;11.600;2024-03-06T07:39:02;37.70;;;17.37;;
18881;SDS011;9573;50.948;11.600;2024-03-06T07:41:30;36.27;;;16.73;;
18881;SDS011;9573;50.948;11.600;2024-03-06T07:43:58;36.80;;;17.27;;
18881;SDS011;9573;50.948;11.600;2024-03-06T07:46:25;39.10;;;16.47;;
18881;SDS011;9573;50.948;11.600;2024-03-06T07:48:54;37.47;;;17.40;;
18881;SDS011;9573;50.948;11.600;2024-03-06T07:51:21;38.17;;;17.23;;
18881;SDS011;9573;50.948;11.600;2024-03-06T07:53:49;39.30;;;17.10;;
18881;SDS011;9573;50.948;11.600;2024-03-06T07:56:16;39.30;;;16.70;;
18881;SDS011;9573;50.948;11.600;2024-03-06T07:58:43;38.07;;;16.93;;
18881;SDS011;9573;50.948;11.600;2024-03-06T08:01:10;35.70;;;16.30;;
18881;SDS011;9573;50.948;11.600;2024-03-06T08:03:38;34.17;;;15.90;;
18881;SDS011;9573;50.948;11.600;2024-03-06T08:06:09;37.83;;;15.83;;
18881;SDS011;9573;50.948;11.600;2024-03-06T08:08:36;36.93;;;16.37;;
18881;SDS011;9573;50.948;11.600;2024-03-06T08:11:06;35.67;;;15.67;;
18881;SDS011;9573;50.948;11.600;2024-03-06T08:13:35;38.43;;;16.73;;
18881;SDS011;9573;50.948;11.600;2024-03-06T08:16:02;34.63;;;16.47;;
18881;SDS011;9573;50.948;11.600;2024-03-06T08:18:30;37.90;;;16.77;;
18881;SDS011;9573;50.948;11.600;2024-03-06T08:20:58;40.63;;;17.17;;
18881;SDS011;9573;50.948;11.600;2024-03-06T08:23:27;37.03;;;17.23;;
18881;SDS011;9573;50.948;11.600;2024-03-06T08:25:54;40.23;;;17.00;;
18881;SDS011;9573;50.948;11.600;2024-03-06T08:28:21;36.90;;;16.67;;
18881;SDS011;9573;50.948;11.600;2024-03-06T08:30:51;39.27;;;17.73;;
18881;SDS011;9573;50.948;11.600;2024-03-06T08:33:18;37.77;;;17.90;;
18881;SDS011;9573;50.948;11.600;2024-03-06T08:35:50;41.17;;;19.07;;
18881;SDS011;9573;50.948;11.600;2024-03-06T08:38:17;41.70;;;18.83;;
18881;SDS011;9573;50.948;11.600;2024-03-06T08:40:47;41.77;;;18.20;;
18881;SDS011;9573;50.948;11.600;2024-03-06T08:43:17;41.83;;;18.93;;
18881;SDS011;9573;50.948;11.600;2024-03-06T08:45:45;42.60;;;19.03;;
18881;SDS011;9573;50.948;11.600;2024-03-06T08:48:12;39.90;;;19.17;;
18881;SDS011;9573;50.948;11.600;2024-03-06T08:50:39;41.13;;;19.53;;
18881;SDS011;9573;50.948;11.600;2024-03-06T08:53:13;40.97;;;18.90;;
18881;SDS011;9573;50.948;11.600;2024-03-06T08:55:42;40.83;;;19.13;;
18881;SDS011;9573;50.948;11.600;2024-03-06T08:58:16;40.67;;;19.10;;
18881;SDS011;9573;50.948;11.600;2024-03-06T09:00:45;40.40;;;19.40;;
18881;SDS011;9573;50.948;11.600;2024-03-06T09:03:19;41.73;;;20.03;;
18881;SDS011;9573;50.948;11.600;2024-03-06T09:05:51;41.30;;;20.17;;
18881;SDS011;9573;50.948;11.600;2024-03-06T09:08:19;41.90;;;20.27;;
18881;SDS011;9573;50.948;11.600;2024-03-06T09:10:49;41.30;;;19.60;;
18881;SDS011;9573;50.948;11.600;2024-03-06T09:13:25;42.87;;;19.43;;
18881;SDS011;9573;50.948;11.600;2024-03-06T09:16:01;44.87;;;20.63;;
18881;SDS011;9573;50.948;11.600;2024-03-06T09:18:29;46.43;;;20.93;;
18881;SDS011;9573;50.948;11.600;2024-03-06T09:20:59;40.90;;;20.00;;
18881;SDS011;9573;50.948;11.600;2024-03-06T09:23:27;43.07;;;21.17;;
18881;SDS011;9573;50.948;11.600;2024-03-06T09:25:58;43.77;;;20.93;;
18881;SDS011;9573;50.948;11.600;2024-03-06T09:28:36;43.30;;;21.57;;
18881;SDS011;9573;50.948;11.600;2024-03-06T09:31:10;45.93;;;21.60;;
18881;SDS011;9573;50.948;11.600;2024-03-06T09:33:42;44.87;;;20.67;;
18881;SDS011;9573;50.948;11.600;2024-03-06T09:36:11;43.90;;;21.40;;
18881;SDS011;9573;50.948;11.600;2024-03-06T09:38:39;47.27;;;21.53;;
18881;SDS011;9573;50.948;11.600;2024-03-06T09:41:17;43.67;;;21.00;;
18881;SDS011;9573;50.948;11.600;2024-03-06T09:43:46;44.87;;;21.30;;
18881;SDS011;9573;50.948;11.600;2024-03-06T09:46:19;43.87;;;21.97;;
18881;SDS011;9573;50.948;11.600;2024-03-06T09:48:46;44.93;;;22.03;;
18881;SDS011;9573;50.948;11.600;2024-03-06T09:51:17;45.53;;;23.10;;
18881;SDS011;9573;50.948;11.600;2024-03-06T09:53:46;46.47;;;22.47;;
18881;SDS011;9573;50.948;11.600;2024-03-06T09:56:16;47.57;;;23.30;;
18881;SDS011;9573;50.948;11.600;2024-03-06T09:58:46;49.90;;;23.20;;
18881;SDS011;9573;50.948;11.600;2024-03-06T10:01:19;43.97;;;22.63;;
18881;SDS011;9573;50.948;11.600;2024-03-06T10:03:47;52.40;;;23.93;;
18881;SDS011;9573;50.948;11.600;2024-03-06T10:06:18;47.40;;;22.43;;
18881;SDS011;9573;50.948;11.600;2024-03-06T10:08:51;47.13;;;22.90;;
18881;SDS011;9573;50.948;11.600;2024-03-06T10:11:39;45.10;;;22.37;;
18881;SDS011;9573;50.948;11.600;2024-03-06T10:14:11;44.33;;;22.50;;
18881;SDS011;9573;50.948;11.600;2024-03-06T10:17:05;45.20;;;23.67;;
18881;SDS011;9573;50.948;11.600;2024-03-06T10:19:33;44.80;;;23.53;;
18881;SDS011;9573;50.948;11.600;2024-03-06T10:22:02;44.80;;;22.50;;
18881;SDS011;9573;50.948;11.600;2024-03-06T10:24:34;44.57;;;21.93;;
18881;SDS011;9573;50.948;11.600;2024-03-06T10:27:01;47.07;;;23.40;;
18881;SDS011;9573;50.948;11.600;2024-03-06T10:29:30;47.97;;;23.20;;
18881;SDS011;9573;50.948;11.600;2024-03-06T10:31:58;46.77;;;22.87;;
18881;SDS011;9573;50.948;11.600;2024-03-06T10:34:25;50.17;;;23.17;;
18881;SDS011;9573;50.948;11.600;2024-03-06T10:36:54;43.30;;;22.30;;
18881;SDS011;9573;50.948;11.600;2024-03-06T10:39:23;48.10;;;23.93;;
18881;SDS011;9573;50.948;11.600;2024-03-06T10:41:51;48.57;;;23.17;;
18881;SDS011;9573;50.948;11.600;2024-03-06T10:44:21;44.80;;;22.23;;
18881;SDS011;9573;50.948;11.600;2024-03-06T10:46:54;46.43;;;21.80;;
18881;SDS011;9573;50.948;11.600;2024-03-06T10:49:25;46.80;;;22.33;;
18881;SDS011;9573;50.948;11.600;2024-03-06T10:51:55;42.27;;;21.93;;
18881;SDS011;9573;50.948;11.600;2024-03-06T10:54:26;43.17;;;21.50;;
18881;SDS011;9573;50.948;11.600;2024-03-06T10:56:55;45.10;;;22.83;;
18881;SDS011;9573;50.948;11.600;2024-03-06T10:59:24;43.80;;;20.70;;
18881;SDS011;9573;50.948;11.600;2024-03-06T11:01:55;45.97;;;21.27;;
18881;SDS011;9573;50.948;11.600;2024-03-06T11:04:24;42.93;;;20.43;;
18881;SDS011;9573;50.948;11.600;2024-03-06T11:06:53;44.27;;;21.07;;
18881;SDS011;9573;50.948;11.600;2024-03-06T11:09:21;46.53;;;21.40;;
18881;SDS011;9573;50.948;11.600;2024-03-06T11:11:48;46.30;;;22.67;;
18881;SDS011;9573;50.948;11.600;2024-03-06T11:14:17;44.03;;;22.30;;
18881;SDS011;9573;50.948;11.600;2024-03-06T11:17:02;46.47;;;21.83;;
18881;SDS011;9573;50.948;11.600;2024-03-06T11:20:07;44.07;;;23.10;;
18881;SDS011;9573;50.948;11.600;2024-03-06T11:25:55;43.53;;;19.70;;
18881;SDS011;9573;50.948;11.600;2024-03-06T11:28:29;47.73;;;22.67;;
18881;SDS011;9573;50.948;11.600;2024-03-06T11:30:57;49.67;;;22.90;;
18881;SDS011;9573;50.948;11.600;2024-03-06T11:33:37;48.70;;;23.70;;
18881;SDS011;9573;50.948;11.600;2024-03-06T11:36:15;48.03;;;24.20;;
18881;SDS011;9573;50.948;11.600;2024-03-06T11:38:51;47.20;;;24.20;;
18881;SDS011;9573;50.948;11.600;2024-03-06T11:41:19;44.73;;;22.87;;
18881;SDS011;9573;50.948;11.600;2024-03-06T11:43:50;46.20;;;22.47;;
18881;SDS011;9573;50.948;11.600;2024-03-06T11:46:18;42.57;;;21.97;;
18881;SDS011;9573;50.948;11.600;2024-03-06T11:48:54;47.87;;;22.27;;
18881;SDS011;9573;50.948;11.600;2024-03-06T11:51:23;43.60;;;22.17;;
18881;SDS011;9573;50.948;11.600;2024-03-06T11:53:51;40.57;;;19.33;;
18881;SDS011;9573;50.948;11.600;2024-03-06T11:56:20;40.40;;;19.63;;
18881;SDS011;9573;50.948;11.600;2024-03-06T11:58:47;42.53;;;18.43;;
18881;SDS011;9573;50.948;11.600;2024-03-06T12:01:14;40.47;;;19.27;;
18881;SDS011;9573;50.948;11.600;2024-03-06T12:03:42;41.27;;;19.23;;
18881;SDS011;9573;50.948;11.600;2024-03-06T12:06:10;41.10;;;19.30;;
18881;SDS011;9573;50.948;11.600;2024-03-06T12:08:38;41.10;;;19.80;;
18881;SDS011;9573;50.948;11.600;2024-03-06T12:11:06;43.60;;;19.70;;
18881;SDS011;9573;50.948;11.600;2024-03-06T12:13:33;41.03;;;18.37;;
18881;SDS011;9573;50.948;11.600;2024-03-06T12:16:03;37.00;;;17.43;;
18881;SDS011;9573;50.948;11.600;2024-03-06T12:18:32;43.10;;;18.57;;
18881;SDS011;9573;50.948;11.600;2024-03-06T12:21:00;39.13;;;18.90;;
18881;SDS011;9573;50.948;11.600;2024-03-06T12:23:30;37.60;;;17.37;;
18881;SDS011;9573;50.948;11.600;2024-03-06T12:26:06;38.53;;;17.70;;
18881;SDS011;9573;50.948;11.600;2024-03-06T12:28:36;40.03;;;17.30;;
18881;SDS011;9573;50.948;11.600;2024-03-06T12:31:03;37.87;;;17.67;;
18881;SDS011;9573;50.948;11.600;2024-03-06T12:33:32;40.13;;;18.47;;
18881;SDS011;9573;50.948;11.600;2024-03-06T12:36:01;40.77;;;19.33;;
18881;SDS011;9573;50.948;11.600;2024-03-06T12:38:32;39.80;;;19.30;;
18881;SDS011;9573;50.948;11.600;2024-03-06T12:40:59;43.00;;;20.03;;
18881;SDS011;9573;50.948;11.600;2024-03-06T12:43:27;42.63;;;19.97;;
18881;SDS011;9573;50.948;11.600;2024-03-06T12:45:54;41.27;;;19.13;;
18881;SDS011;9573;50.948;11.600;2024-03-06T12:48:22;41.70;;;18.27;;
18881;SDS011;9573;50.948;11.600;2024-03-06T12:50:50;40.43;;;18.13;;
18881;SDS011;9573;50.948;11.600;2024-03-06T12:53:19;39.63;;;19.07;;
18881;SDS011;9573;50.948;11.600;2024-03-06T12:55:48;42.17;;;19.60;;
18881;SDS011;9573;50.948;11.600;2024-03-06T12:58:15;41.80;;;20.50;;
18881;SDS011;9573;50.948;11.600;2024-03-06T13:00:42;41.00;;;18.83;;
18881;SDS011;9573;50.948;11.600;2024-03-06T13:03:09;45.63;;;20.87;;
18881;SDS011;9573;50.948;11.600;2024-03-06T13:05:36;43.63;;;20.60;;
18881;SDS011;9573;50.948;11.600;2024-03-06T13:08:03;42.40;;;21.43;;
18881;SDS011;9573;50.948;11.600;2024-03-06T13:10:31;44.40;;;21.83;;
18881;SDS011;9573;50.948;11.600;2024-03-06T13:13:02;45.50;;;21.27;;
18881;SDS011;9573;50.948;11.600;2024-03-06T13:15:29;42.77;;;20.83;;
18881;SDS011;9573;50.948;11.600;2024-03-06T13:17:56;43.93;;;19.33;;
18881;SDS011;9573;50.948;11.600;2024-03-06T13:20:23;39.07;;;19.53;;
18881;SDS011;9573;50.948;11.600;2024-03-06T13:22:50;40.80;;;20.20;;
18881;SDS011;9573;50.948;11.600;2024-03-06T13:25:17;41.47;;;20.00;;
18881;SDS011;9573;50.948;11.600;2024-03-06T13:27:45;41.00;;;19.53;;
18881;SDS011;9573;50.948;11.600;2024-03-06T13:30:14;44.33;;;20.77;;
18881;SDS011;9573;50.948;11.600;2024-03-06T13:32:41;41.70;;;21.10;;
18881;SDS011;9573;50.948;11.600;2024-03-06T13:35:10;43.50;;;19.93;;
18881;SDS011;9573;50.948;11.600;2024-03-06T13:37:38;41.50;;;20.20;;
18881;SDS011;9573;50.948;11.600;2024-03-06T13:40:06;43.83;;;20.67;;
18881;SDS011;9573;50.948;11.600;2024-03-06T13:42:35;43.57;;;19.27;;
18881;SDS011;9573;50.948;11.600;2024-03-06T13:45:03;40.57;;;18.77;;
18881;SDS011;9573;50.948;11.600;2024-03-06T13:47:38;43.80;;;19.50;;
18881;SDS011;9573;50.948;11.600;2024-03-06T13:50:06;43.87;;;19.17;;
18881;SDS011;9573;50.948;11.600;2024-03-06T13:52:35;42.57;;;17.40;;
18881;SDS011;9573;50.948;11.600;2024-03-06T13:55:02;38.57;;;17.93;;
18881;SDS011;9573;50.948;11.600;2024-03-06T13:57:30;42.47;;;18.87;;
18881;SDS011;9573;50.948;11.600;2024-03-06T13:59:59;43.73;;;18.97;;
18881;SDS011;9573;50.948;11.600;2024-03-06T14:02:27;38.33;;;16.67;;
18881;SDS011;9573;50.948;11.600;2024-03-06T14:04:55;38.30;;;17.37;;
18881;SDS011;9573;50.948;11.600;2024-03-06T14:07:23;33.63;;;13.57;;
18881;SDS011;9573;50.948;11.600;2024-03-06T14:09:50;39.23;;;17.03;;
18881;SDS011;9573;50.948;11.600;2024-03-06T14:12:17;39.80;;;16.90;;
18881;SDS011;9573;50.948;11.600;2024-03-06T14:14:44;43.07;;;20.20;;
18881;SDS011;9573;50.948;11.600;2024-03-06T14:17:11;46.33;;;21.33;;
18881;SDS011;9573;50.948;11.600;2024-03-06T14:19:38;47.27;;;21.47;;
18881;SDS011;9573;50.948;11.600;2024-03-06T14:22:06;46.90;;;21.77;;
18881;SDS011;9573;50.948;11.600;2024-03-06T14:24:33;47.50;;;19.17;;
18881;SDS011;9573;50.948;11.600;2024-03-06T14:27:01;48.10;;;19.63;;
18881;SDS011;9573;50.948;11.600;2024-03-06T14:29:27;42.00;;;18.93;;
18881;SDS011;9573;50.948;11.600;2024-03-06T14:31:55;44.67;;;18.23;;